Time;durP1;ratioP1;P1;durP2;ratioP2;P2;SDS_P1;SDS_P2;PMS_P1;PMS_P2;Temp;Humidity;BMP_temperature;BMP_pressure;BME280_temperature;BME280_humidity;BME280_pressure;Samples;Min_cycle;Max_cycle;Signal;HPM_P1;HPM_P2
2022/02/06 00:00:52;;;;;;;3.95;2.78;;;;;;;-3.17;100.00;95694.97;5033170;28;20079;-64
2022/02/06 00:03:18;;;;;;;;;;;;;;;-3.19;100.00;95708.22;5034317;28;20022;-64
2022/02/06 00:05:48;;;;;;;2.97;2.00;;;;;;;-3.25;100.00;95696.63;5032246;28;19932;-63
2022/02/06 00:08:17;;;;;;;6.20;2.35;;;;;;;-3.25;100.00;95696.63;5032921;28;20030;-64
2022/02/06 00:10:43;;;;;;;4.70;2.25;;;;;;;-3.24;100.00;95693.03;5032207;28;20029;-64
2022/02/06 00:13:08;;;;;;;4.65;2.40;;;;;;;-3.28;100.00;95688.25;5030344;28;20112;-64
2022/02/06 00:15:34;;;;;;;5.47;2.20;;;;;;;-3.32;100.00;95679.09;5032114;28;20032;-63
2022/02/06 00:20:33;;;;;;;4.05;2.50;;;;;;;-3.28;100.00;95677.78;5050069;28;20270;-64
2022/02/06 00:23:05;;;;;;;5.15;2.20;;;;;;;-3.12;100.00;95682.19;5052549;28;20411;-65
2022/02/06 00:25:47;;;;;;;4.88;2.38;;;;;;;-2.80;100.00;95676.91;5053075;28;20506;-65
2022/02/06 00:33:45;;;;;;;3.80;2.30;;;;;;;-2.30;100.00;95667.84;5052974;28;20363;-65
2022/02/06 00:39:05;;;;;;;4.75;2.63;;;;;;;-2.38;100.00;95660.03;5043211;28;20032;-64
2022/02/06 00:41:40;;;;;;;7.15;2.53;;;;;;;-2.56;100.00;95648.97;5051555;28;20021;-64
2022/02/06 00:44:11;;;;;;;3.83;2.40;;;;;;;-2.70;100.00;95648.69;5052790;28;20103;-64
2022/02/06 00:46:40;;;;;;;5.63;2.05;;;;;;;-2.80;100.00;95642.00;5051532;28;20498;-64
2022/02/06 00:49:20;;;;;;;3.80;2.30;;;;;;;-2.86;100.00;95646.09;5055911;28;20111;-64
2022/02/06 00:51:55;;;;;;;4.30;2.55;;;;;;;-2.86;100.00;95640.03;5052602;28;20491;-64
2022/02/06 00:54:21;;;;;;;4.60;1.90;;;;;;;-2.88;100.00;95640.22;5051840;28;20028;-64
2022/02/06 00:56:46;;;;;;;5.90;2.28;;;;;;;-2.92;100.00;95646.78;5052698;28;20025;-64
2022/02/06 00:59:12;;;;;;;4.28;2.35;;;;;;;-2.93;100.00;95647.78;5052265;28;20035;-64
2022/02/06 01:01:41;;;;;;;3.10;2.22;;;;;;;-2.97;100.00;95649.91;5051557;28;20025;-63
2022/02/06 01:04:07;;;;;;;3.15;2.20;;;;;;;-2.93;100.00;95638.09;5052286;28;20048;-63
2022/02/06 01:06:33;;;;;;;4.63;2.47;;;;;;;-2.83;100.00;95630.03;5050202;28;20036;-64
2022/02/06 01:09:05;;;;;;;3.35;2.05;;;;;;;-2.75;100.00;95631.81;5051204;28;20391;-64
2022/02/06 01:11:33;;;;;;;4.88;1.92;;;;;;;-2.63;100.00;95631.28;5051286;28;20037;-64
2022/02/06 01:16:29;;;;;;;6.10;2.63;;;;;;;-2.16;100.00;95625.16;5052273;28;20044;-63
2022/02/06 01:19:00;;;;;;;3.67;2.65;;;;;;;-2.01;100.00;95625.22;5056070;28;20067;-63
2022/02/06 01:26:44;;;;;;;7.30;3.17;;;;;;;-1.79;100.00;95607.84;5052062;28;20484;-63
2022/02/06 01:32:04;;;;;;;7.15;3.00;;;;;;;-1.69;100.00;95607.63;5057247;28;20059;-63
2022/02/06 01:34:41;;;;;;;7.45;2.92;;;;;;;-1.70;100.00;95601.56;5050955;28;20108;-63
2022/02/06 01:42:28;;;;;;;3.22;2.30;;;;;;;-1.97;100.00;95594.19;5051759;28;20561;-62
2022/02/06 02:09:46;;;;;;;6.45;2.97;;;;;;;-2.80;100.00;95594.81;5052104;28;20035;-60
2022/02/06 02:12:39;;;;;;;4.18;2.78;;;;;;;-2.84;100.00;95596.13;5051724;28;20445;-61
2022/02/06 02:31:49;;;;;;;5.07;3.10;;;;;;;-2.76;100.00;95564.63;5050234;28;20044;-61
2022/02/06 02:48:04;;;;;;;4.70;2.75;;;;;;;-2.52;100.00;95556.63;5038927;28;20028;-61
2022/02/06 02:50:33;;;;;;;5.70;3.08;;;;;;;-2.58;100.00;95552.09;5052741;28;20479;-61
2022/02/06 02:53:18;;;;;;;5.05;2.65;;;;;;;-2.56;100.00;95549.31;5053549;28;20032;-61
2022/02/06 02:56:11;;;;;;;6.47;2.72;;;;;;;-2.44;100.00;95553.16;5063001;28;20036;-61
2022/02/06 03:03:53;;;;;;;8.50;2.95;;;;;;;-1.96;100.00;95545.94;5059781;28;20322;-62
2022/02/06 03:06:21;;;;;;;4.55;2.72;;;;;;;-1.80;100.00;95551.91;5054637;28;20379;-62
2022/02/06 03:08:54;;;;;;;6.20;2.70;;;;;;;-1.68;100.00;95541.78;5054671;28;20368;-62
2022/02/06 03:11:23;;;;;;;5.75;2.55;;;;;;;-1.53;100.00;95541.78;5053282;28;20021;-60
2022/02/06 03:14:05;;;;;;;7.47;2.40;;;;;;;-1.38;100.00;95547.91;5040654;28;20431;-60
2022/02/06 03:16:35;;;;;;;4.63;2.20;;;;;;;-1.09;100.00;95539.19;5047048;28;20033;-60
2022/02/06 03:21:35;;;;;;;6.90;2.03;;;;;;;-0.83;100.00;95535.31;5058706;28;20063;-62
2022/02/06 03:24:26;;;;;;;4.63;2.00;;;;;;;-0.71;100.00;95537.28;5053078;28;20025;-61
2022/02/06 03:26:54;;;;;;;4.32;1.92;;;;;;;-0.67;100.00;95533.28;5053160;28;20063;-62
2022/02/06 03:29:21;;;;;;;2.25;1.52;;;;;;;-0.66;100.00;95534.91;5052922;28;20491;-61
2022/02/06 03:31:51;;;;;;;3.83;2.00;;;;;;;-0.68;100.00;95536.91;5051857;28;20025;-62
2022/02/06 03:34:17;;;;;;;4.38;1.98;;;;;;;-0.72;100.00;95524.31;5052814;28;20020;-61
2022/02/06 03:36:46;;;;;;;5.80;2.38;;;;;;;-0.72;100.00;95524.31;5035401;28;20033;-62
2022/02/06 03:39:11;;;;;;;3.33;1.85;;;;;;;-0.76;100.00;95518.63;5053810;28;20052;-62
2022/02/06 03:41:52;;;;;;;4.57;2.00;;;;;;;-0.76;100.00;95521.25;5052724;28;20063;-60
2022/02/06 03:44:23;;;;;;;5.03;2.33;;;;;;;-0.74;100.00;95521.06;5066693;28;20035;-61
2022/02/06 03:47:13;;;;;;;3.00;1.85;;;;;;;-0.75;100.00;95522.88;5052389;28;20024;-62
2022/02/06 03:50:04;;;;;;;7.78;2.15;;;;;;;-0.71;100.00;95533.84;5056691;28;20399;-62
2022/02/06 03:52:35;;;;;;;4.45;1.95;;;;;;;-0.70;100.00;95525.75;5053269;28;20033;-62
2022/02/06 03:55:00;;;;;;;5.32;1.92;;;;;;;-0.69;100.00;95519.50;5051391;28;20071;-62
2022/02/06 03:57:26;;;;;;;8.07;2.28;;;;;;;-0.70;100.00;95527.56;5053446;28;20021;-62
2022/02/06 03:59:54;;;;;;;5.40;2.33;;;;;;;-0.73;100.00;95530.59;5053623;28;20028;-62
2022/02/06 04:02:23;;;;;;;3.05;1.88;;;;;;;-0.70;100.00;95517.06;5052385;28;20597;-62
2022/02/06 04:04:48;;;;;;;3.50;1.58;;;;;;;-0.72;100.00;95517.25;5052330;28;20479;-62
2022/02/06 04:07:14;;;;;;;3.17;1.70;;;;;;;-0.70;100.00;95512.63;5055884;28;20032;-61
2022/02/06 04:09:48;;;;;;;5.88;1.95;;;;;;;-0.72;100.00;95505.91;5032237;28;20570;-62
2022/02/06 04:12:16;;;;;;;4.30;1.42;;;;;;;-0.72;100.00;95501.47;5051672;28;20031;-62
2022/02/06 04:14:53;;;;;;;3.20;1.48;;;;;;;-0.72;100.00;95496.19;5052320;28;20112;-61
2022/02/06 04:17:38;;;;;;;3.35;1.15;;;;;;;-0.62;100.00;95483.56;5053156;28;20025;-62
2022/02/06 04:20:06;;;;;;;1.95;1.23;;;;;;;-0.59;100.00;95485.81;5050771;28;20083;-62
2022/02/06 04:22:35;;;;;;;2.47;1.20;;;;;;;-0.56;100.00;95489.06;5051919;28;20104;-62
2022/02/06 04:25:01;;;;;;;4.32;1.38;;;;;;;-0.55;100.00;95488.06;5052122;28;20626;-61
2022/02/06 04:27:26;;;;;;;2.17;1.40;;;;;;;-0.59;100.00;95493.72;5038961;28;20049;-61
2022/02/06 04:29:53;;;;;;;2.33;1.23;;;;;;;-0.55;100.00;95499.41;5048799;28;20021;-62
2022/02/06 04:32:19;;;;;;;2.15;1.30;;;;;;;-0.53;100.00;95497.44;5057456;28;20024;-61
2022/02/06 04:34:45;;;;;;;4.13;1.45;;;;;;;-0.47;100.00;95486.16;5052803;28;20106;-61
2022/02/06 04:37:27;;;;;;;2.03;1.30;;;;;;;-0.45;100.00;95478.88;5056913;28;20067;-62
2022/02/06 04:40:20;;;;;;;2.60;1.40;;;;;;;-0.43;100.00;95479.53;5053493;28;20053;-61
2022/02/06 04:55:02;;;;;;;5.05;1.92;;;;;;;-0.44;100.00;95463.91;5052664;28;20032;-61
2022/02/06 05:23:49;;;;;;;5.85;1.10;;;;;;;-0.20;100.00;95397.75;5052224;28;20103;-62
2022/02/06 05:29:14;;;;;;;2.45;0.98;;;;;;;-0.11;100.00;95390.50;5052579;28;20033;-62
2022/02/06 05:31:56;;;;;;;3.22;1.10;;;;;;;-0.07;100.00;95386.50;5056472;28;20127;-62
2022/02/06 05:34:30;;;;;;;3.42;0.82;;;;;;;-0.06;100.00;95373.13;5051045;28;20403;-62
2022/02/06 05:36:56;;;;;;;6.25;1.08;;;;;;;0.00;100.00;95371.56;5055275;28;20029;-62
2022/02/06 05:39:24;;;;;;;1.65;0.75;;;;;;;0.07;100.00;95372.41;5056021;28;20040;-62
2022/02/06 05:41:49;;;;;;;4.07;0.88;;;;;;;0.25;100.00;95346.38;5052211;28;20059;-62
2022/02/06 05:44:15;;;;;;;1.08;0.73;;;;;;;0.31;100.00;95342.16;5050448;28;20481;-62
2022/02/06 05:46:43;;;;;;;4.75;1.25;;;;;;;0.29;100.00;95329.16;5050675;28;20515;-62
2022/02/06 05:49:10;;;;;;;2.55;0.80;;;;;;;0.30;100.00;95319.44;5055483;28;20024;-62
2022/02/06 05:51:36;;;;;;;1.65;0.85;;;;;;;0.37;100.00;95325.56;5051938;28;20068;-62
2022/02/06 05:54:01;;;;;;;5.10;1.00;;;;;;;0.39;100.00;95322.72;5050581;28;20029;-62
2022/02/06 05:56:29;;;;;;;4.15;0.98;;;;;;;0.43;100.00;95316.06;5050405;28;20037;-62
2022/02/06 05:58:58;;;;;;;2.25;1.00;;;;;;;0.45;100.00;95311.41;5051776;28;20036;-62
2022/02/06 06:01:23;;;;;;;2.65;0.80;;;;;;;0.45;100.00;95309.59;5050916;28;20489;-62
2022/02/06 06:03:50;;;;;;;3.03;1.00;;;;;;;0.42;100.00;95303.88;5051956;28;20051;-62
2022/02/06 06:06:18;;;;;;;2.90;1.10;;;;;;;0.40;100.00;95295.38;5050473;28;20063;-62
2022/02/06 06:08:50;;;;;;;2.75;1.00;;;;;;;0.43;100.00;95292.34;5050146;28;20021;-62
2022/02/06 06:11:15;;;;;;;2.03;0.70;;;;;;;0.39;100.00;95286.66;5053309;28;20024;-62
2022/02/06 06:13:41;;;;;;;1.88;0.85;;;;;;;0.38;100.00;95287.66;5054530;28;20017;-62
2022/02/06 06:16:12;;;;;;;3.40;1.13;;;;;;;0.40;100.00;95290.09;5055511;28;20066;-62
2022/02/06 06:18:37;;;;;;;3.35;1.10;;;;;;;0.37;100.00;95291.31;5069866;22;20056;-55
2022/02/06 06:21:04;;;;;;;3.47;0.90;;;;;;;0.44;100.00;95286.09;5061114;28;20091;-57
2022/02/06 06:23:32;;;;;;;2.05;1.00;;;;;;;0.47;100.00;95283.84;5055169;28;20105;-57
2022/02/06 06:25:57;;;;;;;3.88;0.88;;;;;;;0.49;100.00;95273.94;5055147;28;20021;-59
2022/02/06 06:28:23;;;;;;;2.97;1.15;;;;;;;0.48;100.00;95274.94;5055385;28;20103;-58
2022/02/06 06:30:54;;;;;;;1.70;0.70;;;;;;;0.48;100.00;95269.66;5057369;28;20029;-59
2022/02/06 06:33:19;;;;;;;2.80;0.90;;;;;;;0.47;100.00;95278.59;5056196;28;20029;-60
2022/02/06 06:35:48;;;;;;;4.72;0.80;;;;;;;0.49;100.00;95281.03;5055510;28;20074;-59
2022/02/06 06:38:19;;;;;;;1.35;0.60;;;;;;;0.48;100.00;95277.56;5061655;28;20036;-59
2022/02/06 06:40:44;;;;;;;2.45;1.00;;;;;;;0.49;100.00;95275.75;5050115;28;20024;-59
2022/02/06 06:43:10;;;;;;;3.95;0.70;;;;;;;0.50;100.00;95267.63;5053852;28;20022;-61
2022/02/06 06:45:35;;;;;;;4.03;1.10;;;;;;;0.50;100.00;95267.63;5047981;28;20391;-58
2022/02/06 06:48:00;;;;;;;4.95;1.10;;;;;;;0.53;100.00;95269.06;5028401;28;20043;-60
2022/02/06 06:50:32;;;;;;;3.97;0.90;;;;;;;0.54;100.00;95257.50;5056435;28;20063;-61
2022/02/06 06:53:02;;;;;;;2.30;1.02;;;;;;;0.57;100.00;95265.03;5054830;28;20108;-61
2022/02/06 06:55:30;;;;;;;1.33;0.95;;;;;;;0.54;100.00;95268.03;5052465;28;20039;-61
2022/02/06 06:58:08;;;;;;;3.85;0.80;;;;;;;0.50;100.00;95282.66;5050297;28;20029;-61
2022/02/06 07:00:54;;;;;;;1.60;0.80;;;;;;;0.48;100.00;95293.38;5053844;28;20434;-61
2022/02/06 07:03:19;;;;;;;2.35;0.98;;;;;;;0.49;100.00;95302.91;5046438;28;20083;-61
2022/02/06 07:05:44;;;;;;;1.95;1.15;;;;;;;0.52;100.00;95301.69;5054575;28;20476;-60
2022/02/06 07:08:10;;;;;;;5.63;0.90;;;;;;;0.52;100.00;95288.53;5055835;28;20045;-60
2022/02/06 07:10:35;;;;;;;2.42;1.10;;;;;;;0.55;100.00;95285.50;5053076;28;20025;-61
2022/02/06 07:13:01;;;;;;;3.53;1.00;;;;;;;0.57;100.00;95284.31;5053204;28;20020;-61
2022/02/06 07:15:26;;;;;;;4.13;1.45;;;;;;;0.55;100.00;95286.31;5035357;28;20039;-59
2022/02/06 07:17:51;;;;;;;4.43;0.93;;;;;;;0.53;100.00;95301.50;5047459;28;20052;-61
2022/02/06 07:20:17;;;;;;;4.15;0.90;;;;;;;0.50;100.00;95298.47;5041169;28;20083;-60
2022/02/06 07:22:44;;;;;;;3.08;1.13;;;;;;;0.49;100.00;95315.28;5044921;28;20021;-61
2022/02/06 07:25:10;;;;;;;3.95;0.75;;;;;;;0.45;100.00;95316.69;5042975;28;20399;-60
2022/02/06 07:27:39;;;;;;;3.70;0.70;;;;;;;0.42;100.00;95309.16;5053616;28;20021;-61
2022/02/06 07:30:06;;;;;;;5.10;1.08;;;;;;;0.37;100.00;95311.59;5042203;28;20029;-61
2022/02/06 07:32:35;;;;;;;1.05;0.68;;;;;;;0.35;100.00;95330.22;5056886;28;20083;-61
2022/02/06 07:35:03;;;;;;;2.40;0.93;;;;;;;0.38;100.00;95315.84;5053825;28;20494;-61
2022/02/06 07:37:28;;;;;;;4.50;1.20;;;;;;;0.36;100.00;95302.06;5060791;28;20060;-60
2022/02/06 07:39:54;;;;;;;3.72;1.02;;;;;;;0.38;100.00;95303.47;5047901;28;20064;-61
2022/02/06 07:42:22;;;;;;;2.67;0.70;;;;;;;0.41;100.00;95307.53;5035424;28;20025;-61
2022/02/06 07:44:49;;;;;;;2.25;0.75;;;;;;;0.43;100.00;95313.41;5058504;28;20017;-61
2022/02/06 07:47:19;;;;;;;10.13;1.27;;;;;;;0.40;100.00;95298.81;5042980;28;20096;-61
2022/02/06 07:49:48;;;;;;;8.32;1.13;;;;;;;0.38;100.00;95292.94;5056528;28;20489;-60
2022/02/06 07:52:15;;;;;;;3.65;1.00;;;;;;;0.43;100.00;95284.44;5045174;28;20039;-61
2022/02/06 07:54:41;;;;;;;3.25;1.00;;;;;;;0.53;100.00;95290.97;5051299;28;20025;-61
2022/02/06 07:57:06;;;;;;;2.55;1.10;;;;;;;0.66;100.00;95282.31;5043373;28;20032;-61
2022/02/06 07:59:32;;;;;;;3.85;0.90;;;;;;;0.76;100.00;95282.75;5051831;28;20031;-62
2022/02/06 08:01:59;;;;;;;5.10;1.00;;;;;;;0.95;100.00;95275.06;5054771;28;20025;-62
2022/02/06 08:04:24;;;;;;;3.17;0.82;;;;;;;1.01;100.00;95271.63;5051618;28;20025;-61
2022/02/06 08:06:49;;;;;;;3.03;0.75;;;;;;;1.08;100.00;95286.44;5054899;28;20040;-62
2022/02/06 08:09:20;;;;;;;3.65;1.05;;;;;;;1.13;100.00;95280.56;5053460;28;20036;-63
2022/02/06 08:11:47;;;;;;;1.60;0.70;;;;;;;1.18;100.00;95280.75;5052997;28;20051;-63
2022/02/06 08:14:49;;;;;;;4.43;0.73;;;;;;;1.30;100.00;95278.34;5051460;28;20029;-63
2022/02/06 08:16:58;;;;;;;6.80;1.40;;;;;;;1.41;100.00;95272.44;5052746;28;20029;-64
2022/02/06 08:19:24;;;;;;;3.35;1.00;;;;;;;1.49;100.00;95272.25;5058248;28;20055;-66
2022/02/06 08:21:49;;;;;;;2.40;1.08;;;;;;;1.62;100.00;95266.97;5050933;28;20127;-65
2022/02/06 08:24:14;;;;;;;4.40;0.82;;;;;;;1.61;100.00;95254.78;5042712;28;20105;-64
2022/02/06 08:26:40;;;;;;;1.42;0.90;;;;;;;1.69;100.00;95257.22;5040326;28;20045;-64
2022/02/06 08:29:05;;;;;;;2.90;1.15;;;;;;;1.71;100.00;95257.81;5052201;28;20029;-64
2022/02/06 08:31:30;;;;;;;2.55;1.10;;;;;;;1.77;100.00;95258.03;5045993;28;20021;-64
2022/02/06 08:33:56;;;;;;;2.97;0.82;;;;;;;1.79;100.00;95253.34;5040420;28;20384;-64
2022/02/06 08:36:21;;;;;;;2.47;1.08;;;;;;;1.89;100.00;95259.81;5042893;28;20025;-61
2022/02/06 08:38:46;;;;;;;3.03;1.10;;;;;;;1.89;100.00;95264.28;5041360;28;20029;-63
2022/02/06 08:41:12;;;;;;;5.82;0.90;;;;;;;1.95;100.00;95250.25;5042973;28;20048;-64
2022/02/06 08:43:37;;;;;;;2.65;0.95;;;;;;;1.96;100.00;95246.63;5041535;28;20075;-64
2022/02/06 08:46:05;;;;;;;3.25;1.27;;;;;;;2.15;100.00;95244.91;5044750;28;20043;-64
2022/02/06 08:48:30;;;;;;;1.70;0.82;;;;;;;2.21;100.00;95246.72;5042197;28;20036;-63
2022/02/06 08:50:55;;;;;;;4.40;1.13;;;;;;;2.45;100.00;95238.09;5040474;28;20024;-65
2022/02/06 08:53:21;;;;;;;2.80;0.88;;;;;;;2.69;100.00;95228.59;5042709;28;20025;-63
2022/02/06 08:55:48;;;;;;;3.13;1.00;;;;;;;2.85;100.00;95264.34;5041155;28;20471;-64
2022/02/06 08:58:15;;;;;;;2.42;1.10;;;;;;;2.93;100.00;95264.09;5042221;28;20029;-64
2022/02/06 09:00:40;;;;;;;3.00;0.95;;;;;;;3.08;100.00;95267.25;5044387;28;20047;-64
2022/02/06 09:03:06;;;;;;;3.45;0.93;;;;;;;3.25;100.00;95272.00;5042694;28;20018;-64
2022/02/06 09:05:33;;;;;;;2.55;1.00;;;;;;;3.22;100.00;95286.50;5044872;28;20493;-63
2022/02/06 09:07:58;;;;;;;3.00;1.00;;;;;;;3.28;100.00;95290.94;5037732;28;20030;-64
2022/02/06 09:10:24;;;;;;;6.85;1.25;;;;;;;3.35;100.00;95301.47;5045268;28;20459;-63
2022/02/06 09:12:54;;;;;;;3.97;1.02;;;;;;;3.39;100.00;95315.91;5040256;28;20029;-64
2022/02/06 09:15:21;;;;;;;2.20;0.80;;;;;;;3.45;100.00;95329.09;5049830;28;20032;-63
2022/02/06 09:17:49;;;;;;;3.20;1.00;;;;;;;3.35;100.00;95330.59;5048484;28;20025;-64
2022/02/06 09:20:16;;;;;;;3.22;1.00;;;;;;;3.21;100.00;95324.56;5047832;28;20479;-63
2022/02/06 09:22:53;;;;;;;2.33;1.00;;;;;;;3.18;100.00;95341.69;5058900;28;20052;-62
2022/02/06 09:25:22;;;;;;;2.17;1.00;;;;;;;3.10;100.00;95335.84;5052101;28;20024;-64
2022/02/06 09:27:50;;;;;;;4.60;1.00;;;;;;;2.93;100.00;95338.19;5052175;28;20093;-63
2022/02/06 09:30:19;;;;;;;4.13;1.10;;;;;;;2.81;100.00;95326.59;5051655;28;20029;-63
2022/02/06 09:35:16;;;;;;;4.88;1.15;;;;;;;2.78;100.00;95319.91;5052137;28;20083;-63
2022/02/06 09:37:41;;;;;;;2.38;0.95;;;;;;;2.77;100.00;95322.78;5034549;28;20476;-63
2022/02/06 09:40:13;;;;;;;2.25;1.10;;;;;;;2.84;100.00;95316.44;5050512;28;20107;-63
2022/02/06 09:42:49;;;;;;;3.22;1.23;;;;;;;2.84;100.00;95313.78;5048586;28;20492;-63
2022/02/06 09:45:28;;;;;;;1.75;1.00;;;;;;;2.86;100.00;95297.72;5053236;28;20476;-62
2022/02/06 09:47:57;;;;;;;5.03;1.00;;;;;;;2.89;100.00;95290.16;5056325;28;20357;-63
2022/02/06 09:50:23;;;;;;;6.03;1.30;;;;;;;3.15;100.00;95277.81;5037904;28;20062;-63
2022/02/06 09:52:53;;;;;;;3.63;1.27;;;;;;;3.48;100.00;95294.25;5054610;28;20527;-63
2022/02/06 09:55:22;;;;;;;5.35;1.30;;;;;;;3.76;100.00;95296.47;5053158;28;20104;-65
2022/02/06 09:58:16;;;;;;;3.78;1.25;;;;;;;3.64;100.00;95284.97;5055094;28;20029;-64
2022/02/06 10:00:36;;;;;;;4.00;1.15;;;;;;;3.56;100.00;95295.00;5051968;28;20403;-64
2022/02/06 10:03:07;;;;;;;5.63;1.30;;;;;;;3.54;100.00;95294.41;5055136;28;20415;-65
2022/02/06 10:05:46;;;;;;;3.45;1.00;;;;;;;3.55;100.00;95290.72;5053826;28;20047;-64
2022/02/06 10:08:32;;;;;;;4.63;0.90;;;;;;;3.54;100.00;95276.69;5054003;28;20043;-65
2022/02/06 10:11:03;;;;;;;3.78;0.93;;;;;;;3.70;100.00;95259.44;5050322;28;20032;-66
2022/02/06 10:13:37;;;;;;;4.78;1.38;;;;;;;3.83;100.00;95255.88;5053829;28;20029;-65
2022/02/06 10:16:07;;;;;;;4.05;1.40;;;;;;;4.27;100.00;95282.13;5054315;28;20060;-65
2022/02/06 10:18:32;;;;;;;3.05;1.08;;;;;;;4.40;100.00;95277.69;5053988;28;20702;-65
2022/02/06 10:21:01;;;;;;;5.00;1.13;;;;;;;4.10;100.00;95289.03;5049336;28;20028;-64
2022/02/06 10:23:38;;;;;;;4.05;1.30;;;;;;;3.95;100.00;95264.72;5041353;28;20097;-64
2022/02/06 10:26:18;;;;;;;2.22;1.30;;;;;;;3.93;100.00;95264.94;5045363;28;20017;-65
2022/02/06 10:28:47;;;;;;;3.55;1.45;;;;;;;3.82;100.00;95260.34;5050817;28;20021;-64
2022/02/06 10:31:13;;;;;;;4.97;1.30;;;;;;;3.85;100.00;95275.81;5054547;28;20037;-64
2022/02/06 10:33:53;;;;;;;3.72;1.05;;;;;;;3.85;100.00;95261.75;5054294;28;20625;-64
2022/02/06 10:36:36;;;;;;;7.15;1.40;;;;;;;3.82;100.00;95259.56;5053940;28;20036;-65
2022/02/06 10:39:05;;;;;;;6.20;1.23;;;;;;;3.83;100.00;95256.69;5054713;28;20469;-65
2022/02/06 10:41:32;;;;;;;4.43;1.10;;;;;;;3.90;100.00;95238.03;5053150;28;20028;-65
2022/02/06 10:44:07;;;;;;;3.75;0.90;;;;;;;3.89;100.00;95247.84;5035964;28;20048;-65
2022/02/06 10:46:43;;;;;;;4.88;1.20;;;;;;;3.87;100.00;95233.19;5054943;28;20017;-64
2022/02/06 10:49:17;;;;;;;3.17;1.25;;;;;;;4.13;100.00;95224.97;5046785;28;20063;-65
2022/02/06 10:52:09;;;;;;;3.85;1.20;;;;;;;4.38;100.00;95211.63;5053895;28;20074;-65
2022/02/06 10:54:38;;;;;;;5.85;1.27;;;;;;;4.44;100.00;95210.72;5055018;28;20048;-65
2022/02/06 10:57:11;;;;;;;2.63;1.35;;;;;;;4.38;100.00;95200.22;5054020;28;20029;-65
2022/02/06 10:59:45;;;;;;;5.10;1.65;;;;;;;4.46;100.00;95208.69;5054447;28;20025;-64
2022/02/06 11:02:30;;;;;;;4.28;1.40;;;;;;;4.49;100.00;95194.97;5053344;28;20043;-65
2022/02/06 11:05:13;;;;;;;3.83;1.33;;;;;;;4.57;100.00;95188.53;5053133;28;20056;-62
2022/02/06 11:07:51;;;;;;;4.75;1.27;;;;;;;4.70;100.00;95184.91;5050200;28;20032;-62
2022/02/06 11:10:16;;;;;;;3.80;1.23;;;;;;;4.64;100.00;95190.06;5048949;28;20378;-65
2022/02/06 11:12:57;;;;;;;5.53;1.27;;;;;;;4.63;100.00;95193.75;5041323;28;20086;-65
2022/02/06 11:15:26;;;;;;;4.05;1.10;;;;;;;4.57;100.00;95186.69;5046211;28;20446;-64
2022/02/06 11:18:14;;;;;;;3.22;0.88;;;;;;;4.42;100.00;95167.69;5044762;28;20095;-64
2022/02/06 11:20:51;;;;;;;2.20;0.90;;;;;;;4.38;100.00;95184.31;5052944;28;20053;-65
2022/02/06 11:23:17;;;;;;;5.80;0.93;;;;;;;4.28;100.00;95185.63;5054389;28;20392;-64
2022/02/06 11:25:44;;;;;;;3.28;0.90;;;;;;;4.22;100.00;95157.34;5053734;28;20033;-65
2022/02/06 11:28:12;;;;;;;2.22;0.90;;;;;;;4.22;100.00;95165.31;5047662;28;20029;-65
2022/02/06 11:30:42;;;;;;;3.28;1.00;;;;;;;4.24;100.00;95167.75;5052688;28;20025;-66
2022/02/06 11:33:07;;;;;;;3.88;1.05;;;;;;;4.22;100.00;95160.00;5054022;28;20032;-65
2022/02/06 11:35:36;;;;;;;3.83;0.95;;;;;;;4.18;100.00;95150.06;5042490;28;20430;-65
2022/02/06 11:44:00;;;;;;;4.05;1.02;;;;;;;4.26;100.00;95126.72;5049603;28;20434;-63
2022/02/06 11:46:35;;;;;;;5.13;1.20;;;;;;;4.35;100.00;95129.88;5046520;28;20047;-65
2022/02/06 11:49:11;;;;;;;6.57;0.82;;;;;;;4.34;100.00;95128.22;5047967;28;20047;-65
2022/02/06 11:52:09;;;;;;;1.90;0.80;;;;;;;4.37;100.00;95109.25;5043832;28;20483;-66
2022/02/06 11:54:52;;;;;;;2.10;0.90;;;;;;;4.41;100.00;95106.94;5036975;28;20045;-66
2022/02/06 11:57:28;;;;;;;1.33;0.68;;;;;;;4.42;100.00;95084.69;5049508;28;20025;-64
2022/02/06 12:00:02;;;;;;;1.75;0.90;;;;;;;4.41;100.00;95083.88;5050078;28;20409;-65
2022/02/06 12:02:30;;;;;;;3.53;1.13;;;;;;;4.49;100.00;95088.88;5042718;28;20567;-65
2022/02/06 12:05:12;;;;;;;1.40;0.63;;;;;;;4.45;100.00;95079.75;5050960;28;20037;-63
2022/02/06 12:07:52;;;;;;;2.85;0.80;;;;;;;4.48;100.00;95097.06;5052849;28;20419;-64
2022/02/06 12:10:18;;;;;;;2.78;0.80;;;;;;;4.39;100.00;95091.25;5052219;28;20028;-65
2022/02/06 12:12:46;;;;;;;1.63;0.70;;;;;;;4.35;100.00;95076.84;5049887;28;20021;-65
2022/02/06 12:15:42;;;;;;;2.40;0.82;;;;;;;4.40;100.00;95074.31;5045553;28;20025;-65
2022/02/06 12:18:13;;;;;;;3.58;0.90;;;;;;;4.43;100.00;95075.69;5053283;28;20063;-65
2022/02/06 12:21:08;;;;;;;2.80;0.80;;;;;;;4.40;100.00;95065.53;5082246;22;20114;-66
2022/02/06 12:23:55;;;;;;;2.90;0.80;;;;;;;4.38;100.00;95059.66;5048586;28;20021;-66
2022/02/06 12:26:27;;;;;;;2.63;1.02;;;;;;;4.35;100.00;95045.03;5052461;28;20029;-67
2022/02/06 12:28:55;;;;;;;1.58;0.80;;;;;;;4.32;100.00;95048.09;5052274;28;20021;-66
2022/02/06 12:31:31;;;;;;;1.95;0.73;;;;;;;4.35;100.00;95029.13;5031803;28;20072;-66
2022/02/06 12:34:10;;;;;;;2.00;0.65;;;;;;;4.34;100.00;95023.00;5019963;28;20112;-67
2022/02/06 12:39:36;;;;;;;1.45;0.98;;;;;;;4.43;100.00;95012.03;5032239;28;20036;-65
2022/02/06 12:42:03;;;;;;;1.65;0.60;;;;;;;4.39;100.00;95003.75;5030748;28;20037;-66
2022/02/06 12:44:36;;;;;;;2.58;1.15;;;;;;;4.40;100.00;95007.22;5030679;28;20021;-66
2022/02/06 12:47:03;;;;;;;;;;;;;;;4.41;100.00;95014.13;5033057;28;20021;-67
2022/02/06 12:49:34;;;;;;;2.45;1.00;;;;;;;4.45;100.00;94999.34;5032709;28;19916;-65
2022/02/06 12:52:09;;;;;;;3.53;0.80;;;;;;;4.43;100.00;94977.56;5032117;28;20060;-66
2022/02/06 12:54:35;;;;;;;2.67;1.00;;;;;;;4.42;100.00;94992.69;5031680;28;20025;-66
2022/02/06 12:57:01;;;;;;;0.98;0.60;;;;;;;4.49;100.00;94974.81;5032492;28;20039;-68
2022/02/06 12:59:30;;;;;;;5.47;0.90;;;;;;;4.50;100.00;94979.09;5031089;28;20021;-66
2022/02/06 13:01:55;;;;;;;2.20;0.55;;;;;;;4.53;100.00;94969.84;5031249;28;20075;-70
2022/02/06 13:04:27;;;;;;;4.47;0.65;;;;;;;4.55;100.00;94971.22;5031009;28;20017;-66
2022/02/06 13:06:52;;;;;;;1.92;0.70;;;;;;;4.56;100.00;94958.81;5032362;28;20021;-66
2022/02/06 13:09:32;;;;;;;2.40;0.80;;;;;;;4.56;100.00;94959.63;5030366;28;20017;-66
2022/02/06 13:34:13;;;;;;;2.55;0.68;;;;;;;4.83;100.00;94922.00;5032277;28;20548;-66
2022/02/06 13:36:50;;;;;;;3.50;1.25;;;;;;;4.89;100.00;94931.69;5009103;28;20095;-66
2022/02/06 13:39:35;;;;;;;1.40;0.60;;;;;;;4.93;100.00;94938.94;5032489;28;20076;-67
2022/02/06 13:42:21;;;;;;;5.63;0.95;;;;;;;4.98;100.00;94950.69;5032273;28;20125;-67
2022/02/06 13:45:13;;;;;;;0.60;0.60;;;;;;;5.00;100.00;94924.75;5032080;28;20027;-67
2022/02/06 13:47:42;;;;;;;1.10;0.73;;;;;;;5.02;100.00;94931.44;5032092;28;20068;-67
2022/02/06 13:50:14;;;;;;;1.17;0.60;;;;;;;5.06;100.00;94934.41;5030802;28;20025;-67
2022/02/06 13:52:43;;;;;;;1.33;0.70;;;;;;;5.07;100.00;94934.16;5031972;28;20022;-67
2022/02/06 13:55:16;;;;;;;2.00;0.90;;;;;;;5.15;100.00;94927.69;5031967;28;20026;-67
2022/02/06 13:57:43;;;;;;;0.98;0.60;;;;;;;5.16;100.00;94924.00;5030680;28;20021;-67
2022/02/06 14:00:22;;;;;;;1.35;0.50;;;;;;;5.21;100.00;94934.75;5033263;28;20059;-67
2022/02/06 14:02:55;;;;;;;2.05;0.52;;;;;;;5.24;100.00;94934.25;5032492;28;20150;-67
2022/02/06 14:05:23;;;;;;;1.63;0.63;;;;;;;5.23;100.00;94890.97;5032194;28;20029;-67
2022/02/06 14:08:07;;;;;;;1.40;0.70;;;;;;;5.27;100.00;94923.16;5031099;28;20029;-67
2022/02/06 14:10:59;;;;;;;1.92;1.13;;;;;;;5.27;100.00;94925.81;5030563;28;20112;-67
2022/02/06 14:13:25;;;;;;;1.60;0.70;;;;;;;5.23;100.00;94924.69;5029458;28;20061;-67
2022/02/06 14:16:14;;;;;;;1.15;0.80;;;;;;;5.23;100.00;94914.06;5027841;28;20071;-67
2022/02/06 14:18:53;;;;;;;2.25;0.90;;;;;;;5.21;100.00;94906.34;5031848;28;20022;-67
2022/02/06 14:21:18;;;;;;;1.50;0.60;;;;;;;5.20;100.00;94910.00;5031416;28;20530;-67
2022/02/06 14:24:00;;;;;;;1.40;1.05;;;;;;;5.24;100.00;94897.09;5031555;28;20037;-67
2022/02/06 14:26:29;;;;;;;2.17;0.70;;;;;;;5.23;100.00;94883.00;5031588;28;20022;-67
2022/02/06 14:28:54;;;;;;;1.75;0.88;;;;;;;5.26;100.00;94849.06;5031606;28;20021;-67
2022/02/06 14:31:35;;;;;;;1.45;0.77;;;;;;;5.22;100.00;94870.78;5030154;28;20498;-67
2022/02/06 14:34:33;;;;;;;1.58;0.90;;;;;;;5.22;100.00;94878.75;5034528;28;20041;-67